Time;durP1;ratioP1;P1;durP2;ratioP2;P2;SDS_P1;SDS_P2;PMS_P1;PMS_P2;Temp;Humidity;BMP_temperature;BMP_pressure;BME280_temperature;BME280_humidity;BME280_pressure;Samples;Min_cycle;Max_cycle;Signal;HPM_P1;HPM_P2
2020/12/14 00:00:29;;;;;;;15.78;11.83;;;;;;;3.61;72.21;96386.50;1753242;81;21589;-56
2020/12/14 00:02:59;;;;;;;15.05;11.50;;;;;;;3.62;72.13;96388.17;1741210;80;21068;-54
2020/12/14 00:05:28;;;;;;;16.35;11.85;;;;;;;3.64;72.08;96390.67;1742732;80;21052;-54
2020/12/14 00:07:56;;;;;;;;;;;;;;;3.64;72.02;96386.37;1738975;82;22588;-54
2020/12/14 00:10:24;;;;;;;16.85;10.40;;;;;;;3.65;72.05;96385.91;1707683;82;20231;-55
2020/12/14 00:12:52;;;;;;;13.83;10.08;;;;;;;3.66;71.95;96384.55;1722762;82;21112;-55
2020/12/14 00:15:19;;;;;;;15.72;10.63;;;;;;;3.67;71.85;96387.97;1745150;80;21160;-55
2020/12/14 00:17:47;;;;;;;16.37;11.28;;;;;;;3.66;71.82;96389.69;1733303;80;21066;-55
2020/12/14 00:20:15;;;;;;;16.25;10.53;;;;;;;3.68;71.87;96392.18;1750064;82;21214;-55
2020/12/14 00:22:42;;;;;;;13.20;10.18;;;;;;;3.70;71.76;96392.97;1747338;80;21609;-55
2020/12/14 00:25:10;;;;;;;14.43;10.43;;;;;;;3.71;71.80;96392.50;1737065;82;21552;-55
2020/12/14 00:27:38;;;;;;;14.93;10.10;;;;;;;3.71;71.77;96401.02;1720669;83;21052;-55
2020/12/14 00:30:06;;;;;;;13.78;10.05;;;;;;;3.73;71.77;96400.95;1742316;82;21064;-55
2020/12/14 00:32:33;;;;;;;12.47;9.60;;;;;;;3.76;71.58;96402.10;1725711;82;21217;-55
2020/12/14 00:35:01;;;;;;;12.03;9.35;;;;;;;3.75;71.45;96402.99;1722369;82;21141;-54
2020/12/14 00:37:29;;;;;;;10.63;8.48;;;;;;;3.71;71.41;96398.45;1749679;80;21583;-55
2020/12/14 00:39:57;;;;;;;9.98;8.10;;;;;;;3.69;71.39;96407.51;1734953;82;21079;-55
2020/12/14 00:42:24;;;;;;;12.18;8.20;;;;;;;3.65;71.39;96409.85;1720036;82;21075;-54
2020/12/14 00:44:54;;;;;;;10.98;8.15;;;;;;;3.62;71.45;96413.02;1738881;82;21607;-54
2020/12/14 00:47:22;;;;;;;12.15;8.70;;;;;;;3.63;71.65;96411.63;1726607;82;21541;-54
2020/12/14 00:49:50;;;;;;;10.53;8.30;;;;;;;3.67;71.65;96416.20;1740658;82;21147;-54
2020/12/14 00:52:18;;;;;;;10.80;8.50;;;;;;;3.68;71.75;96419.98;1751010;81;21076;-54
2020/12/14 00:54:45;;;;;;;11.35;8.70;;;;;;;3.71;71.67;96424.58;1697453;82;21041;-55
2020/12/14 00:57:13;;;;;;;12.45;8.50;;;;;;;3.69;71.45;96426.75;1759340;81;21374;-55
2020/12/14 00:59:41;;;;;;;10.65;8.13;;;;;;;3.68;71.51;96430.67;1748433;81;21248;-55
2020/12/14 01:02:08;;;;;;;10.35;7.67;;;;;;;3.67;71.43;96435.44;1748247;79;21065;-55
2020/12/14 01:04:36;;;;;;;10.43;8.20;;;;;;;3.65;71.42;96433.37;1744197;81;21484;-55
2020/12/14 01:07:04;;;;;;;10.72;7.60;;;;;;;3.64;71.52;96436.40;1742804;81;21072;-54
2020/12/14 01:09:31;;;;;;;11.12;7.85;;;;;;;3.64;71.59;96436.86;1744985;81;21628;-54
2020/12/14 01:12:02;;;;;;;10.70;7.85;;;;;;;3.64;71.57;96436.40;1721750;82;21223;-54
2020/12/14 01:14:30;;;;;;;10.25;8.33;;;;;;;3.65;71.60;96432.95;1730953;82;21163;-55
2020/12/14 01:16:58;;;;;;;11.88;8.73;;;;;;;3.66;71.67;96440.18;1741848;80;20982;-55
2020/12/14 01:19:25;;;;;;;10.50;7.90;;;;;;;3.67;71.70;96441.86;1745594;80;21548;-55
2020/12/14 01:21:53;;;;;;;12.65;8.88;;;;;;;3.66;71.56;96438.44;1738427;80;21159;-55
2020/12/14 01:24:20;;;;;;;10.93;8.60;;;;;;;3.63;71.46;96437.75;1732285;80;21159;-54
2020/12/14 01:26:48;;;;;;;11.15;8.08;;;;;;;3.59;71.52;96446.05;1740978;82;21143;-56
2020/12/14 01:29:15;;;;;;;9.83;7.65;;;;;;;3.51;71.44;96440.42;1731596;82;21068;-55
2020/12/14 01:31:43;;;;;;;10.28;7.67;;;;;;;3.46;71.74;96438.52;1741262;82;21088;-55
2020/12/14 01:34:11;;;;;;;9.78;7.70;;;;;;;3.47;71.87;96442.30;1750199;82;21374;-55
2020/12/14 01:36:39;;;;;;;9.88;7.92;;;;;;;3.51;71.92;96441.70;1751489;80;21155;-55
2020/12/14 01:39:06;;;;;;;8.95;7.08;;;;;;;3.49;71.95;96445.62;1734395;80;21085;-55
2020/12/14 01:41:34;;;;;;;8.38;6.65;;;;;;;3.49;71.98;96445.62;1730160;82;21917;-54
2020/12/14 01:44:02;;;;;;;9.35;7.30;;;;;;;3.46;71.94;96445.75;1742145;81;21120;-54
2020/12/14 01:46:30;;;;;;;8.48;7.22;;;;;;;3.46;72.04;96441.91;1748598;81;21191;-54
2020/12/14 01:49:01;;;;;;;7.35;6.55;;;;;;;3.49;72.00;96444.34;1713110;82;21089;-55
2020/12/14 01:51:30;;;;;;;8.80;6.65;;;;;;;3.53;71.91;96441.64;1724183;82;21168;-55
2020/12/14 01:53:59;;;;;;;;;;;;;;;3.54;71.83;96447.16;1768337;79;21064;-55
2020/12/14 01:56:27;;;;;;;9.13;7.23;;;;;;;3.54;71.85;96451.01;1739246;81;20557;-55
2020/12/14 01:58:54;;;;;;;10.00;7.27;;;;;;;3.54;71.83;96451.83;1728311;82;21517;-55
2020/12/14 02:01:22;;;;;;;9.28;7.20;;;;;;;3.57;71.88;96454.70;1743376;82;22021;-56
2020/12/14 02:03:50;;;;;;;8.25;6.87;;;;;;;3.60;71.89;96458.41;1750213;80;21144;-54
2020/12/14 02:06:18;;;;;;;8.23;6.45;;;;;;;3.63;71.86;96467.26;1749508;80;21100;-55
2020/12/14 02:08:46;;;;;;;8.05;6.72;;;;;;;3.65;71.64;96474.00;1734157;82;21097;-55
2020/12/14 02:11:14;;;;;;;7.60;6.45;;;;;;;3.67;71.48;96472.65;1744491;80;21378;-55
2020/12/14 02:13:42;;;;;;;8.80;6.65;;;;;;;3.69;71.28;96472.94;1734342;82;21186;-55
2020/12/14 02:16:09;;;;;;;8.98;6.97;;;;;;;3.70;71.09;96482.78;1727197;82;21200;-55
2020/12/14 02:18:37;;;;;;;6.80;6.10;;;;;;;3.67;71.12;96478.60;1748929;80;22005;-55
2020/12/14 02:21:05;;;;;;;8.03;6.40;;;;;;;3.67;71.06;96477.78;1750504;81;21076;-55
2020/12/14 02:23:33;;;;;;;7.28;5.70;;;;;;;3.65;71.08;96476.99;1740353;82;21601;-55
2020/12/14 02:26:01;;;;;;;6.67;5.65;;;;;;;3.67;71.12;96479.06;1736862;80;21603;-55
2020/12/14 02:28:28;;;;;;;6.80;5.97;;;;;;;3.66;71.17;96480.77;1720409;83;21643;-55
2020/12/14 02:30:56;;;;;;;7.40;6.30;;;;;;;3.67;71.28;96481.63;1725468;82;21064;-55
2020/12/14 02:33:24;;;;;;;6.10;5.50;;;;;;;3.68;71.23;96484.12;1748712;80;21084;-55
2020/12/14 02:35:52;;;;;;;6.67;5.78;;;;;;;3.69;71.16;96484.95;1736667;82;21204;-55
2020/12/14 02:38:21;;;;;;;6.55;5.92;;;;;;;3.68;71.15;96484.56;1740319;82;21157;-55
2020/12/14 02:40:49;;;;;;;5.83;5.28;;;;;;;3.68;71.08;96488.41;1732057;82;21641;-55
2020/12/14 02:43:17;;;;;;;6.92;5.72;;;;;;;3.66;71.04;96493.61;1724983;82;21068;-55
2020/12/14 02:45:46;;;;;;;6.78;5.53;;;;;;;3.63;71.01;96492.45;1754088;81;21120;-55
2020/12/14 02:48:13;;;;;;;5.75;5.17;;;;;;;3.59;71.10;96496.53;1692658;83;21382;-55
2020/12/14 02:50:41;;;;;;;6.00;5.40;;;;;;;3.58;71.21;96498.70;1727452;80;21567;-55
2020/12/14 02:53:08;;;;;;;7.35;5.58;;;;;;;3.59;71.32;96500.38;1740944;80;21154;-55
2020/12/14 02:55:36;;;;;;;5.72;5.00;;;;;;;3.61;71.21;96504.98;1708503;82;21096;-56
2020/12/14 02:58:04;;;;;;;6.08;5.37;;;;;;;3.58;71.16;96503.37;1739845;81;21113;-55
2020/12/14 03:00:31;;;;;;;5.92;5.33;;;;;;;3.57;71.12;96505.58;1728389;82;22223;-56
2020/12/14 03:02:59;;;;;;;6.75;5.80;;;;;;;3.56;71.18;96509.03;1720651;83;21203;-56
2020/12/14 03:05:27;;;;;;;5.97;5.37;;;;;;;3.54;71.22;96510.84;1721328;82;21128;-56
2020/12/14 03:07:55;;;;;;;6.20;5.60;;;;;;;3.52;71.18;96513.08;1750244;80;21059;-55
2020/12/14 03:10:23;;;;;;;6.28;5.53;;;;;;;3.48;71.31;96514.95;1744006;82;21135;-54
2020/12/14 03:12:51;;;;;;;6.30;5.33;;;;;;;3.46;71.35;96518.03;1728815;83;21200;-54
2020/12/14 03:15:19;;;;;;;6.70;5.67;;;;;;;3.47;71.50;96516.69;1744022;82;21131;-55
2020/12/14 03:17:47;;;;;;;6.17;5.58;;;;;;;3.52;71.53;96516.92;1720928;82;21092;-56
2020/12/14 03:20:16;;;;;;;6.22;5.62;;;;;;;3.55;71.50;96524.49;1745860;80;21052;-55
2020/12/14 03:22:44;;;;;;;6.40;5.80;;;;;;;3.56;71.50;96521.03;1731461;80;21095;-55
2020/12/14 03:25:13;;;;;;;7.55;6.33;;;;;;;3.56;71.45;96522.31;1734180;82;21219;-56
2020/12/14 03:27:40;;;;;;;6.95;6.25;;;;;;;3.57;71.43;96524.82;1750499;81;21180;-56
2020/12/14 03:30:10;;;;;;;7.42;6.45;;;;;;;3.59;71.39;96526.04;1728807;82;21215;-56
2020/12/14 03:32:37;;;;;;;;;;;;;;;3.59;71.31;96527.32;1733720;81;21065;-55
2020/12/14 03:35:05;;;;;;;7.85;6.92;;;;;;;3.56;71.42;96528.27;1749869;80;20209;-56
2020/12/14 03:37:32;;;;;;;7.53;6.72;;;;;;;3.56;71.50;96533.86;1751338;80;21575;-54
2020/12/14 03:40:00;;;;;;;7.77;6.70;;;;;;;3.57;71.55;96536.80;1734586;82;21576;-55
2020/12/14 03:42:29;;;;;;;7.03;6.33;;;;;;;3.59;71.62;96537.12;1734780;82;21505;-55
2020/12/14 03:44:57;;;;;;;6.97;6.17;;;;;;;3.63;71.61;96540.38;1732624;81;21080;-56
2020/12/14 03:47:31;;;;;;;7.30;6.55;;;;;;;3.64;71.48;96542.06;1753131;80;21048;-56
2020/12/14 03:49:59;;;;;;;7.33;6.58;;;;;;;3.62;71.50;96536.99;1733757;80;21635;-54
2020/12/14 03:52:27;;;;;;;7.50;6.70;;;;;;;3.61;71.55;96539.16;1747042;82;21947;-55
2020/12/14 03:54:54;;;;;;;7.95;7.15;;;;;;;3.62;71.54;96532.32;1737703;81;21157;-55
2020/12/14 03:57:22;;;;;;;7.97;6.87;;;;;;;3.62;71.53;96536.17;1735004;82;21251;-55
2020/12/14 03:59:50;;;;;;;8.68;6.55;;;;;;;3.61;71.53;96539.16;1743350;80;21493;-54
2020/12/14 04:02:18;;;;;;;7.10;6.40;;;;;;;3.62;71.53;96541.30;1741309;81;21092;-55
2020/12/14 04:04:45;;;;;;;8.38;6.67;;;;;;;3.60;71.43;96547.78;1702131;83;21176;-55
2020/12/14 04:07:15;;;;;;;7.75;6.08;;;;;;;3.59;71.55;96547.39;1720674;82;21136;-56
2020/12/14 04:09:44;;;;;;;7.53;6.72;;;;;;;3.57;71.68;96551.76;1735374;82;21088;-55
2020/12/14 04:12:13;;;;;;;7.65;6.67;;;;;;;3.59;71.75;96554.27;1717239;82;21578;-55
2020/12/14 04:14:42;;;;;;;8.88;7.53;;;;;;;3.60;71.70;96549.49;1730667;82;21356;-55
2020/12/14 04:17:10;;;;;;;8.25;6.80;;;;;;;3.63;71.70;96551.47;1753757;81;21145;-55
2020/12/14 04:19:37;;;;;;;7.62;6.62;;;;;;;3.66;71.54;96551.34;1743553;82;21661;-54
2020/12/14 04:22:09;;;;;;;8.20;6.90;;;;;;;3.65;71.52;96560.38;1720664;82;21096;-54
2020/12/14 04:24:37;;;;;;;7.40;6.37;;;;;;;3.63;71.50;96557.89;1735488;80;21493;-55
2020/12/14 04:27:04;;;;;;;8.25;6.90;;;;;;;3.62;71.50;96564.39;1750509;82;23376;-55
2020/12/14 04:29:32;;;;;;;7.70;6.70;;;;;;;3.62;71.50;96560.55;1735807;82;21564;-55
2020/12/14 04:32:00;;;;;;;8.40;6.70;;;;;;;3.64;71.45;96563.41;1727595;83;21170;-55
2020/12/14 04:34:28;;;;;;;8.53;6.83;;;;;;;3.67;71.37;96563.28;1739804;80;21124;-55
2020/12/14 04:36:56;;;;;;;8.50;6.28;;;;;;;3.64;71.46;96565.98;1750784;82;21073;-55
2020/12/14 04:39:23;;;;;;;9.20;6.97;;;;;;;3.60;71.46;96568.31;1746615;80;22126;-55
2020/12/14 04:41:56;;;;;;;8.07;6.40;;;;;;;3.58;71.52;96564.95;1730803;82;21131;-55
2020/12/14 04:44:27;;;;;;;9.53;6.95;;;;;;;3.59;71.60;96571.77;1746013;82;21088;-56
2020/12/14 04:46:54;;;;;;;9.38;6.67;;;;;;;3.61;71.60;96571.70;1731469;81;21246;-55
2020/12/14 04:49:22;;;;;;;9.23;7.00;;;;;;;3.61;71.66;96572.98;1731537;82;21107;-56
2020/12/14 04:51:51;;;;;;;8.38;6.62;;;;;;;3.59;71.52;96574.33;1750497;80;22032;-56
2020/12/14 04:54:20;;;;;;;8.00;5.97;;;;;;;3.53;71.61;96581.00;1705921;83;21604;-56
2020/12/14 04:56:48;;;;;;;6.72;5.45;;;;;;;3.52;71.79;96588.33;1748455;82;21187;-56
2020/12/14 04:59:16;;;;;;;6.62;5.83;;;;;;;3.55;71.82;96588.63;1710762;83;21215;-54
2020/12/14 05:01:44;;;;;;;7.20;6.17;;;;;;;3.59;71.82;96591.47;1736497;82;21044;-55
2020/12/14 05:04:12;;;;;;;8.38;6.70;;;;;;;3.62;71.73;96592.62;1749010;81;23618;-55
2020/12/14 05:06:51;;;;;;;7.67;6.55;;;;;;;3.62;71.71;96601.60;1750575;82;21155;-56
2020/12/14 05:09:21;;;;;;;7.83;7.03;;;;;;;3.64;71.73;96604.47;1713485;82;21127;-55
2020/12/14 05:11:49;;;;;;;8.58;6.40;;;;;;;3.66;71.65;96605.69;1718280;83;21202;-56
2020/12/14 05:14:23;;;;;;;8.10;6.62;;;;;;;3.66;71.61;96606.52;1736958;80;21080;-55
2020/12/14 05:16:51;;;;;;;7.67;6.37;;;;;;;3.65;71.53;96607.43;1740000;80;21387;-55
2020/12/14 05:19:25;;;;;;;8.20;6.30;;;;;;;3.66;71.46;96610.81;1737923;80;21250;-55
2020/12/14 05:22:00;;;;;;;8.68;6.00;;;;;;;3.68;71.40;96611.16;1755844;81;21123;-56
2020/12/14 05:24:31;;;;;;;6.47;5.67;;;;;;;3.70;71.34;96612.37;1746479;81;21083;-56
2020/12/14 05:27:00;;;;;;;7.42;6.50;;;;;;;3.70;71.50;96612.37;1720711;81;21611;-55
2020/12/14 05:29:30;;;;;;;6.92;6.22;;;;;;;3.73;71.38;96615.23;1742532;80;21232;-55
2020/12/14 05:32:09;;;;;;;6.92;6.17;;;;;;;3.74;71.27;96616.92;1734463;81;21514;-55
2020/12/14 05:34:40;;;;;;;9.80;7.22;;;;;;;3.72;71.22;96614.84;1745263;82;21080;-55
2020/12/14 05:37:38;;;;;;;8.68;6.75;;;;;;;3.68;71.20;96613.72;1750463;81;21052;-55
2020/12/14 05:40:11;;;;;;;8.78;7.05;;;;;;;3.66;71.28;96618.52;1773536;80;21123;-56
2020/12/14 05:42:41;;;;;;;9.83;7.17;;;;;;;3.63;71.26;96614.33;1759059;80;22106;-56
2020/12/14 05:45:12;;;;;;;13.72;9.15;;;;;;;3.67;71.40;96621.48;1750061;80;21168;-54
2020/12/14 05:47:42;;;;;;;8.33;6.85;;;;;;;3.69;71.38;96628.66;1760767;80;21167;-55
2020/12/14 05:50:11;;;;;;;7.55;6.05;;;;;;;3.70;71.41;96631.62;1768161;80;21052;-55
2020/12/14 05:52:49;;;;;;;7.60;6.13;;;;;;;3.69;71.36;96639.74;1758767;80;22162;-56
2020/12/14 05:55:18;;;;;;;;;;;;;;;3.68;71.33;96639.37;1771546;80;21468;-56
2020/12/14 06:00:28;;;;;;;8.83;6.73;;;;;;;3.69;71.35;96650.47;1866116;75;27517;-55
2020/12/14 06:02:56;;;;;;;11.15;7.25;;;;;;;3.58;71.33;96649.62;1800392;78;21754;-55
2020/12/14 06:05:24;;;;;;;;;;;;;;;3.53;71.49;96653.28;1842589;78;21348;-55
2020/12/14 06:07:59;;;;;;;7.92;6.00;;;;;;;3.55;71.44;96664.31;1835304;78;20197;-55
2020/12/14 06:10:31;;;;;;;8.28;6.45;;;;;;;3.53;71.67;96663.09;1822987;78;21471;-56
2020/12/14 06:13:09;;;;;;;7.03;5.53;;;;;;;3.54;71.78;96669.08;1784982;77;21043;-56
2020/12/14 06:15:37;;;;;;;6.80;5.62;;;;;;;3.53;71.62;96668.22;1829845;78;21730;-55
2020/12/14 06:18:06;;;;;;;7.75;6.20;;;;;;;3.53;71.65;96675.92;1780038;79;22363;-55
2020/12/14 06:20:34;;;;;;;9.08;6.37;;;;;;;3.55;71.64;96679.70;1779741;78;21166;-55
2020/12/14 06:23:04;;;;;;;6.70;5.83;;;;;;;3.53;71.59;96680.23;1808471;78;21551;-54
2020/12/14 06:25:32;;;;;;;7.65;6.30;;;;;;;3.53;71.65;96678.48;1808617;78;21122;-54
2020/12/14 06:28:30;;;;;;;6.97;5.70;;;;;;;3.55;71.61;96681.81;1841037;78;21955;-54
2020/12/14 06:31:05;;;;;;;7.00;6.30;;;;;;;3.61;71.57;96678.17;1871602;76;27840;-55
2020/12/14 06:33:40;;;;;;;7.40;6.45;;;;;;;3.67;71.44;96682.61;1775305;80;21045;-55
2020/12/14 06:36:24;;;;;;;11.73;8.05;;;;;;;3.69;71.28;96685.94;1750215;81;21571;-55
2020/12/14 06:38:53;;;;;;;11.75;8.20;;;;;;;3.69;71.40;96683.37;1743612;81;20946;-55
2020/12/14 06:41:23;;;;;;;10.08;7.62;;;;;;;3.74;71.38;96687.03;1817468;77;20993;-55
2020/12/14 06:44:06;;;;;;;10.18;7.25;;;;;;;3.77;71.24;96679.67;1804195;77;21123;-54
2020/12/14 06:46:34;;;;;;;11.85;8.05;;;;;;;3.79;71.14;96679.97;1849276;77;21049;-54
2020/12/14 06:49:02;;;;;;;13.85;9.65;;;;;;;3.82;71.02;96674.71;1805070;78;21475;-56
2020/12/14 06:51:52;;;;;;;12.65;9.05;;;;;;;3.83;70.88;96681.52;1816449;78;21578;-55
2020/12/14 06:54:43;;;;;;;13.08;8.90;;;;;;;3.85;70.89;96682.75;1812830;79;20972;-55
2020/12/14 06:59:54;;;;;;;11.30;7.58;;;;;;;3.98;70.87;96677.47;1861128;76;26976;-54
2020/12/14 07:02:37;;;;;;;8.93;6.90;;;;;;;3.97;70.90;96685.23;1832519;78;21079;-56
2020/12/14 07:05:34;;;;;;;7.73;5.90;;;;;;;4.05;70.76;96683.17;1893511;74;27901;-56
2020/12/14 07:08:02;;;;;;;7.33;6.17;;;;;;;3.99;70.57;96682.97;1790536;79;20907;-55
2020/12/14 07:10:32;;;;;;;6.75;6.00;;;;;;;4.02;70.48;96684.59;1784845;80;21195;-56
2020/12/14 07:13:09;;;;;;;7.70;6.35;;;;;;;4.05;70.36;96673.73;1788305;80;21545;-56
2020/12/14 07:15:39;;;;;;;9.98;7.10;;;;;;;4.11;70.11;96678.21;1782027;80;20919;-56
2020/12/14 07:18:11;;;;;;;8.25;6.80;;;;;;;4.12;69.89;96674.30;1776705;80;21133;-56
2020/12/14 07:20:56;;;;;;;9.85;6.92;;;;;;;4.13;69.77;96679.83;1712954;80;21066;-57
2020/12/14 07:23:25;;;;;;;7.28;6.10;;;;;;;4.14;69.78;96683.22;1779376;80;21373;-56
2020/12/14 07:25:54;;;;;;;7.17;6.10;;;;;;;4.19;69.72;96691.13;1779687;79;21211;-56
2020/12/14 07:28:44;;;;;;;7.08;6.33;;;;;;;4.25;69.56;96691.30;1762007;80;21525;-54
2020/12/14 07:31:18;;;;;;;8.78;6.95;;;;;;;4.30;69.59;96686.78;1767484;78;21185;-55
2020/12/14 07:33:54;;;;;;;11.05;7.33;;;;;;;4.38;69.44;96691.14;1756954;80;21141;-56
2020/12/14 07:36:26;;;;;;;10.23;7.45;;;;;;;4.47;69.10;96693.73;1749595;80;22207;-54
2020/12/14 07:38:56;;;;;;;9.35;7.45;;;;;;;4.52;68.95;96696.97;1788180;79;21624;-55
2020/12/14 07:41:24;;;;;;;7.92;6.78;;;;;;;4.55;68.85;96703.23;1706311;80;21058;-56
2020/12/14 07:43:57;;;;;;;9.08;7.28;;;;;;;4.55;68.42;96701.94;1789628;79;28532;-56
2020/12/14 07:46:34;;;;;;;7.78;6.10;;;;;;;4.50;68.52;96710.77;1767993;79;21111;-55
2020/12/14 07:49:12;;;;;;;7.30;5.65;;;;;;;4.51;68.66;96713.27;1769498;80;21386;-55
2020/12/14 07:51:43;;;;;;;;;;;;;;;4.57;68.50;96707.02;1772580;81;21100;-55
2020/12/14 07:54:16;;;;;;;5.67;5.05;;;;;;;4.66;68.26;96714.33;1769498;81;20220;-54
2020/12/14 07:56:59;;;;;;;9.15;6.00;;;;;;;4.70;68.19;96718.41;1771154;81;21207;-55
2020/12/14 07:59:29;;;;;;;7.85;6.12;;;;;;;4.73;68.24;96718.73;1709114;81;21166;-55
2020/12/14 08:01:57;;;;;;;7.67;5.55;;;;;;;4.79;68.19;96720.58;1726794;81;21215;-55
2020/12/14 08:04:28;;;;;;;8.03;6.35;;;;;;;4.84;68.05;96722.12;1753090;81;21166;-56
2020/12/14 08:06:57;;;;;;;7.50;5.75;;;;;;;4.87;67.92;96718.95;1760178;81;21109;-54
2020/12/14 08:09:31;;;;;;;8.00;6.35;;;;;;;4.93;67.82;96721.68;1744552;81;21157;-56
2020/12/14 08:11:59;;;;;;;7.70;5.83;;;;;;;5.05;67.66;96726.70;1745014;81;21074;-55
2020/12/14 08:14:27;;;;;;;8.90;6.40;;;;;;;5.16;67.38;96722.75;1770187;81;21375;-54
2020/12/14 08:16:55;;;;;;;6.83;6.12;;;;;;;5.27;67.22;96731.23;1769630;81;21148;-56
2020/12/14 08:19:23;;;;;;;8.45;6.35;;;;;;;5.40;67.03;96743.54;1738838;82;21067;-55
2020/12/14 08:22:05;;;;;;;8.65;6.83;;;;;;;5.47;66.87;96743.62;1758095;81;21103;-55
2020/12/14 08:24:34;;;;;;;19.30;11.40;;;;;;;5.51;66.79;96747.73;1738736;82;21056;-55
2020/12/14 08:27:07;;;;;;;;;;;;;;;5.58;66.62;96750.84;1760709;81;21379;-56
2020/12/14 08:29:37;;;;;;;11.97;8.15;;;;;;;5.58;66.48;96754.70;1757216;80;20606;-55
2020/12/14 08:32:04;;;;;;;12.20;8.98;;;;;;;5.57;66.67;96760.28;1752983;81;21103;-55
2020/12/14 08:34:36;;;;;;;8.38;6.83;;;;;;;5.58;66.58;96760.67;1753228;81;21497;-55
2020/12/14 08:37:05;;;;;;;7.12;6.05;;;;;;;5.57;65.95;96762.86;1753063;81;21172;-55
2020/12/14 08:39:33;;;;;;;;;;;;;;;5.49;66.03;96769.67;1755623;81;21365;-55
2020/12/14 08:42:09;;;;;;;7.67;6.50;;;;;;;5.36;65.85;96768.55;1765295;79;20242;-55
2020/12/14 08:44:39;;;;;;;7.22;6.25;;;;;;;5.16;66.43;96773.34;1782625;79;21133;-55
2020/12/14 08:47:14;;;;;;;8.40;6.70;;;;;;;5.08;67.02;96776.29;1756128;81;21133;-55
2020/12/14 08:49:45;;;;;;;7.58;6.45;;;;;;;5.05;66.92;96775.57;1738728;82;21610;-55
2020/12/14 08:52:20;;;;;;;8.55;7.22;;;;;;;4.97;67.18;96772.91;1758299;81;21357;-55
2020/12/14 08:54:56;;;;;;;8.93;7.37;;;;;;;5.01;67.55;96768.91;1711508;82;21174;-55
2020/12/14 08:57:29;;;;;;;8.48;6.72;;;;;;;5.01;67.46;96766.34;1758100;81;21165;-55
2020/12/14 09:00:10;;;;;;;10.85;7.83;;;;;;;5.04;67.76;96767.49;1707962;82;21603;-56
2020/12/14 09:02:39;;;;;;;11.18;8.75;;;;;;;5.09;67.77;96770.22;1726431;83;21487;-56
2020/12/14 09:05:18;;;;;;;11.08;8.55;;;;;;;5.14;67.70;96775.16;1729244;82;26483;-56
2020/12/14 09:07:47;;;;;;;9.73;8.68;;;;;;;5.15;67.67;96769.95;1748412;81;21122;-55
2020/12/14 09:13:05;;;;;;;9.73;7.67;;;;;;;5.18;67.48;96777.99;1776943;79;28175;-54
2020/12/14 09:15:35;;;;;;;9.05;8.03;;;;;;;5.13;67.31;96775.63;1731474;82;21201;-55
2020/12/14 09:18:05;;;;;;;11.00;8.20;;;;;;;5.12;67.12;96780.38;1720011;83;21381;-54
2020/12/14 09:20:34;;;;;;;9.73;8.20;;;;;;;5.09;67.23;96781.80;1719726;83;21153;-59
2020/12/14 09:23:02;;;;;;;11.45;8.85;;;;;;;5.08;67.32;96778.86;1719881;83;20990;-55
2020/12/14 09:25:30;;;;;;;13.40;9.80;;;;;;;5.05;67.50;96789.28;1719760;83;21061;-55
2020/12/14 09:27:57;;;;;;;12.80;9.18;;;;;;;5.04;67.58;96788.06;1719785;83;21474;-54
2020/12/14 09:30:25;;;;;;;15.00;9.30;;;;;;;5.03;67.59;96778.67;1734704;82;22217;-55
2020/12/14 09:32:53;;;;;;;11.53;8.18;;;;;;;5.05;67.51;96780.72;1749501;82;21030;-55
2020/12/14 09:35:23;;;;;;;8.95;7.78;;;;;;;5.07;67.38;96777.19;1749642;81;21018;-55
2020/12/14 09:37:52;;;;;;;11.55;8.65;;;;;;;5.10;67.31;96782.66;1749317;82;21526;-55
2020/12/14 09:40:19;;;;;;;;;;;;;;;5.11;67.30;96782.55;1752166;82;21062;-55
2020/12/14 09:42:47;;;;;;;10.60;8.53;;;;;;;5.13;67.33;96783.34;1749570;82;23626;-56
2020/12/14 09:45:15;;;;;;;11.15;8.00;;;;;;;5.11;67.14;96782.55;1749432;82;21093;-55
2020/12/14 09:47:44;;;;;;;9.58;8.20;;;;;;;5.12;67.10;96784.70;1722017;82;21143;-53
2020/12/14 09:50:15;;;;;;;11.70;9.00;;;;;;;5.07;67.03;96784.08;1719856;83;21629;-56
2020/12/14 09:52:43;;;;;;;12.20;9.35;;;;;;;4.99;67.26;96779.27;1719875;83;21577;-56
2020/12/14 09:55:12;;;;;;;12.53;9.33;;;;;;;4.95;67.40;96778.58;1691999;83;21422;-54
2020/12/14 09:57:40;;;;;;;11.10;9.15;;;;;;;4.93;67.45;96787.25;1719705;83;21096;-54
2020/12/14 10:00:08;;;;;;;11.97;9.68;;;;;;;4.88;67.50;96787.45;1696794;82;21092;-55
2020/12/14 10:02:35;;;;;;;11.33;8.75;;;;;;;4.88;67.76;96794.34;1676292;85;21112;-55
2020/12/14 10:05:05;;;;;;;12.15;9.98;;;;;;;4.89;67.61;96792.98;1675148;84;21156;-54
2020/12/14 10:07:33;;;;;;;12.10;9.13;;;;;;;4.87;68.12;96789.66;1676534;84;21326;-55
2020/12/14 10:10:01;;;;;;;11.03;9.20;;;;;;;4.92;68.17;96790.28;1676248;85;21187;-56
2020/12/14 10:12:29;;;;;;;10.50;8.73;;;;;;;4.97;68.05;96790.91;1682676;84;21071;-56
2020/12/14 10:14:57;;;;;;;11.65;8.85;;;;;;;5.02;67.96;96785.56;1695450;83;21081;-54
2020/12/14 10:17:25;;;;;;;10.90;8.08;;;;;;;5.09;67.54;96787.41;1714987;83;21074;-55
2020/12/14 10:19:54;;;;;;;11.18;8.38;;;;;;;5.11;67.34;96787.70;1714956;83;21205;-55
2020/12/14 10:22:22;;;;;;;13.15;9.38;;;;;;;5.12;67.32;96789.38;1714814;83;21073;-56
2020/12/14 10:24:50;;;;;;;10.18;8.63;;;;;;;5.13;67.21;96793.63;1714028;83;21062;-54
2020/12/14 10:27:20;;;;;;;9.88;8.78;;;;;;;5.13;66.97;96794.06;1686636;83;21483;-55
2020/12/14 10:29:47;;;;;;;10.90;8.70;;;;;;;5.11;67.03;96790.27;1713544;83;21050;-54
2020/12/14 10:32:15;;;;;;;11.68;8.43;;;;;;;5.11;67.22;96794.13;1714434;83;21430;-55
2020/12/14 10:34:43;;;;;;;9.65;8.03;;;;;;;5.13;67.35;96792.34;1714302;82;21157;-54
2020/12/14 10:37:12;;;;;;;8.70;7.30;;;;;;;5.18;67.18;96796.00;1686204;83;21554;-55
2020/12/14 10:39:39;;;;;;;9.78;7.75;;;;;;;5.22;66.99;96797.97;1689813;83;21062;-55
2020/12/14 10:42:08;;;;;;;9.30;7.85;;;;;;;5.24;66.66;96800.84;1685665;85;21072;-55
2020/12/14 10:44:36;;;;;;;;;;;;;;;5.23;66.48;96796.62;1688354;83;21206;-55
2020/12/14 10:47:06;;;;;;;8.93;7.45;;;;;;;5.24;66.52;96793.13;1685733;83;20528;-55
2020/12/14 10:49:33;;;;;;;8.35;7.40;;;;;;;5.26;66.46;96797.77;1685647;85;21149;-55
2020/12/14 10:52:02;;;;;;;9.75;7.22;;;;;;;5.31;66.24;96800.95;1685609;85;21166;-54
2020/12/14 10:54:30;;;;;;;10.05;8.43;;;;;;;5.31;66.10;96804.82;1685833;83;21088;-55
2020/12/14 10:56:57;;;;;;;10.25;7.75;;;;;;;5.29;66.03;96801.92;1685740;85;22215;-54
2020/12/14 10:59:25;;;;;;;10.35;8.15;;;;;;;5.27;66.00;96801.16;1688187;83;21083;-56
2020/12/14 11:01:54;;;;;;;8.40;7.40;;;;;;;5.27;66.07;96805.02;1714429;83;21102;-55
2020/12/14 11:04:23;;;;;;;8.75;7.60;;;;;;;5.25;66.10;96800.41;1714281;83;21144;-55
2020/12/14 11:06:51;;;;;;;8.33;7.25;;;;;;;5.23;66.07;96804.34;1714454;83;21204;-55
2020/12/14 11:09:18;;;;;;;9.58;8.10;;;;;;;5.22;66.06;96804.41;1714287;83;22721;-54
2020/12/14 11:11:46;;;;;;;12.68;8.23;;;;;;;5.28;66.13;96805.38;1712695;83;21078;-55
2020/12/14 11:14:14;;;;;;;10.35;8.45;;;;;;;5.35;66.12;96809.36;1706943;83;21594;-54
2020/12/14 11:16:45;;;;;;;14.80;8.98;;;;;;;5.40;66.10;96813.84;1685891;85;21579;-54
2020/12/14 11:19:13;;;;;;;10.60;8.35;;;;;;;5.46;65.99;96809.70;1685673;84;21106;-55
2020/12/14 11:21:41;;;;;;;9.93;8.03;;;;;;;5.53;65.64;96809.79;1685611;85;21855;-55
2020/12/14 11:24:09;;;;;;;9.90;7.80;;;;;;;5.58;65.27;96805.72;1685581;85;21034;-54
2020/12/14 11:26:37;;;;;;;9.25;7.37;;;;;;;5.62;65.29;96812.84;1685708;85;21080;-54
2020/12/14 11:29:05;;;;;;;8.60;7.70;;;;;;;5.67;65.15;96816.02;1686323;83;21512;-55
2020/12/14 11:31:33;;;;;;;9.18;8.23;;;;;;;5.70;65.17;96815.42;1685725;83;21145;-56
2020/12/14 11:34:01;;;;;;;11.40;8.80;;;;;;;5.71;65.08;96811.12;1685593;85;21349;-55
2020/12/14 11:36:31;;;;;;;13.38;10.78;;;;;;;5.65;65.04;96810.95;1688486;83;21117;-56
2020/12/14 11:38:59;;;;;;;14.00;9.80;;;;;;;5.58;65.32;96809.58;1686623;83;21503;-55
2020/12/14 11:41:27;;;;;;;11.12;8.95;;;;;;;5.56;65.41;96807.54;1714343;83;21502;-55
2020/12/14 11:43:55;;;;;;;;;;;;;;;5.58;65.44;96810.04;1716841;83;21065;-55
2020/12/14 11:46:23;;;;;;;10.53;8.05;;;;;;;5.60;65.29;96821.09;1679418;85;21375;-55
2020/12/14 11:48:51;;;;;;;9.63;7.90;;;;;;;5.61;65.22;96812.02;1667917;86;21606;-55
2020/12/14 11:51:20;;;;;;;8.50;7.53;;;;;;;5.65;65.40;96812.70;1667688;86;21098;-55
2020/12/14 11:53:48;;;;;;;;;;;;;;;5.71;65.09;96817.10;1670182;84;21137;-55
2020/12/14 11:56:17;;;;;;;10.43;8.63;;;;;;;5.74;64.89;96825.15;1680207;85;20227;-55
2020/12/14 11:58:44;;;;;;;9.43;8.33;;;;;;;5.73;64.76;96819.61;1668121;84;22109;-55
2020/12/14 12:01:12;;;;;;;9.13;7.27;;;;;;;5.71;64.68;96824.00;1657687;85;21160;-55